Aérodrome :
LOGIN :

S'inscrire | Disclaimer

   EN    FR    IT 

 










Légende :    VFR   VFR Marginal   IFR   IFR Intensif   IFR Très Intensif
Visi : 
Plafond : 
>= 8 km
>= 3000ft
5 à 8 km
1000 à 3000 ft
1500m à 5 km
500 à 1000 ft
800 à 1500m
200 à 500 ft
< 800m
< 200 ft
Symboles :   Orages  Brouillard  Fortes neiges  Fortes précipitations  Vent > 20 kt
SIGMETs :   Divers  Orages  Givrage  Turbulence  Onde Orograph.  Cendres Volcan.







- Altitude de l'aérodrome : 162 ft
- Code IATA : BOD
- Voir les cartes d'approche


LFBD - Bordeaux / Merignac

DERNIER METAR :
  • 230630Z AUTO 18005KT CAVOK 14/13 Q1018 NOSIG

METARs EXPIRÉS :
  • 230600Z AUTO VRB03KT CAVOK 13/13 Q1018 NOSIG
  • 230530Z AUTO 19003KT 9999 FEW027 BKN230 13/12 Q1018 NOSIG
  • 230500Z AUTO VRB03KT CAVOK 13/13 Q1018 TEMPO 1500 MIFG
  • 230430Z AUTO 22005KT CAVOK 13/13 Q1018 TEMPO 1500 MIFG
  • 230400Z AUTO 21003KT CAVOK 13/12 Q1018 TEMPO 1500 MIFG
  • 230000Z AUTO 20005KT 9999 BKN031 OVC037 15/13 Q1017 NOSIG

TAF TAF LFBD
Valide du 23 à 06h jusqu'au 24 à 12h UTC


230500Z 2306/2412 20005KT 9999 SCT030 TX23/2315Z TN13/2306Z
BECMG 2323/2401 14005KT OVC040
BECMG 2401/2403 -RA
BECMG 2404/2406 20010KT 3000 RA SCT005 OVC013
FM241100 26010KT 9999 SCT040
ATIS : +33 5 57 92 81 04
Pas de NOTAMs connus pour ce terrain.



MET'MAP, la Météo Aéronautique d'un coup d'oeil ! - Copyright ORBIFLY Décembre 2007 - Disclaimer

ORBIFLY MET'MAP TEAM :

Programmation & Développement : Alexandra Zaïnal
Conception & Développement : Baudouin d'Aumeries
Co-Programmation & Développement : Marc-Olivier Méhu
Soutien technique & logistique : Manuel Goepfert

Contact : metmap@orbifly.com




SOURCES & CREDITS :

   NOAA